Accueil
METAR-TAF:

METAR-TAF

Aéroports :

Valladolid, Espagne

Aéroport de Valladolid

latitude: 41-43N, longitude: 004-51W, altitude: 849 m

Observation

Le bulletin a été fait il y a 16 minutes, à 10:00 UTC
Vent 13 kt de est/nord-est, variant entre nord/nord-est et est/sud-est
Température 8°C
Humidité 34%
Pression 1016 hPa
Visibilité 10 km ou plus
pas de nuages en-dessous de 1500 mètres et pas de cumulonimbus.

METAR: LEVD 281000Z 07013KT 030V110 CAVOK 08/M07 Q1016

Heure: 12:16 (10:16 UTC)

Prévision

Le bulletin a été fait il y a 5 heures et 16 minutes, à 05:00 UTC
Prévision valable du 28 à 06 UTC au 29 à 06 UTC
Vent 9 kt de est/nord-est
Visibilité 10 km ou plus
pas de nuages en-dessous de 1500 mètres et pas de cumulonimbus.
Temporairement
du 29 à 02 UTC au 29 à 06 UTC
Visibilité: 8000 m
Nuages fragmentés à une hauteur de 2000 ft
pluie

TAF: LEVD 280500Z 2806/2906 06009KT CAVOK TX14/2816Z TNM03/2806Z TEMPO 2902/2906 8000 RA BKN020

Observations et prévisions météorologiques de plus de 4000 aéroports (messages METAR et TAF).

Les stations disponibles sont représentées par des disques jaunes et rouges sur la carte.

Passer la souris dessus pour voir le nom de la station.

Cliquer dessus pour voir les observations et prévisions météorologiques.

Pour changer de carte: cliquez sur les boutons verts avec une croix noire pour zoomer, sur le bouton vert avec un tiret pour effectuer un zoom arrière, ou sur les flèches vertes pour les cartes adjacentes.


METAR-TAF: